sensor_id;sensor_type;location;lat;lon;timestamp;temperature;humidity
8008;DHT22;4049;49.468;11.200;2024-03-23T00:55:33;8.70;99.90
8008;DHT22;4049;49.468;11.200;2024-03-23T00:57:59;8.60;99.90
8008;DHT22;4049;49.468;11.200;2024-03-23T01:02:55;8.50;99.90
8008;DHT22;4049;49.468;11.200;2024-03-23T01:05:22;8.50;99.90
8008;DHT22;4049;49.468;11.200;2024-03-23T01:07:48;8.40;99.90
8008;DHT22;4049;49.468;11.200;2024-03-23T01:10:16;8.30;99.90
8008;DHT22;4049;49.468;11.200;2024-03-23T01:12:42;8.30;99.90
8008;DHT22;4049;49.468;11.200;2024-03-23T01:15:09;8.30;99.90
8008;DHT22;4049;49.468;11.200;2024-03-23T01:17:35;8.20;99.90
8008;DHT22;4049;49.468;11.200;2024-03-23T01:20:02;8.20;99.90
8008;DHT22;4049;49.468;11.200;2024-03-23T01:22:28;8.10;99.90
8008;DHT22;4049;49.468;11.200;2024-03-23T01:24:55;8.10;99.90
8008;DHT22;4049;49.468;11.200;2024-03-23T01:27:22;8.00;99.90
8008;DHT22;4049;49.468;11.200;2024-03-23T01:29:49;7.90;99.90
8008;DHT22;4049;49.468;11.200;2024-03-23T01:32:17;7.90;99.90
8008;DHT22;4049;49.468;11.200;2024-03-23T01:34:45;7.80;99.90
8008;DHT22;4049;49.468;11.200;2024-03-23T01:37:11;7.70;99.90
8008;DHT22;4049;49.468;11.200;2024-03-23T01:39:37;7.80;99.90
8008;DHT22;4049;49.468;11.200;2024-03-23T01:42:04;7.70;99.90
8008;DHT22;4049;49.468;11.200;2024-03-23T01:44:32;7.70;99.90
8008;DHT22;4049;49.468;11.200;2024-03-23T01:46:58;7.70;99.90
8008;DHT22;4049;49.468;11.200;2024-03-23T01:49:25;7.60;99.90
8008;DHT22;4049;49.468;11.200;2024-03-23T01:51:51;7.60;99.90
8008;DHT22;4049;49.468;11.200;2024-03-23T01:54:18;7.60;99.90
8008;DHT22;4049;49.468;11.200;2024-03-23T01:56:44;7.50;99.90
8008;DHT22;4049;49.468;11.200;2024-03-23T01:59:12;7.50;99.90
8008;DHT22;4049;49.468;11.200;2024-03-23T02:01:40;7.50;99.90
8008;DHT22;4049;49.468;11.200;2024-03-23T02:04:06;7.60;99.90
8008;DHT22;4049;49.468;11.200;2024-03-23T02:06:34;7.50;99.90
8008;DHT22;4049;49.468;11.200;2024-03-23T02:09:01;7.50;99.90
8008;DHT22;4049;49.468;11.200;2024-03-23T02:11:29;7.40;99.90
8008;DHT22;4049;49.468;11.200;2024-03-23T02:13:56;7.40;99.90
8008;DHT22;4049;49.468;11.200;2024-03-23T02:16:21;7.40;99.90
8008;DHT22;4049;49.468;11.200;2024-03-23T02:18:50;7.40;99.90
8008;DHT22;4049;49.468;11.200;2024-03-23T02:21:16;7.40;99.90
8008;DHT22;4049;49.468;11.200;2024-03-23T02:23:44;7.40;99.90
8008;DHT22;4049;49.468;11.200;2024-03-23T02:26:10;7.40;99.90
8008;DHT22;4049;49.468;11.200;2024-03-23T02:28:37;7.50;99.90
8008;DHT22;4049;49.468;11.200;2024-03-23T02:31:03;7.40;99.90
8008;DHT22;4049;49.468;11.200;2024-03-23T02:33:30;7.50;99.90
8008;DHT22;4049;49.468;11.200;2024-03-23T02:35:57;7.50;99.90
8008;DHT22;4049;49.468;11.200;2024-03-23T02:38:24;7.50;99.90
8008;DHT22;4049;49.468;11.200;2024-03-23T02:40:51;7.50;99.90
8008;DHT22;4049;49.468;11.200;2024-03-23T02:43:18;7.50;99.90
8008;DHT22;4049;49.468;11.200;2024-03-23T02:45:44;7.50;99.90
8008;DHT22;4049;49.468;11.200;2024-03-23T02:48:11;7.50;99.90
8008;DHT22;4049;49.468;11.200;2024-03-23T02:50:37;7.50;99.90
8008;DHT22;4049;49.468;11.200;2024-03-23T02:53:04;7.50;99.90
8008;DHT22;4049;49.468;11.200;2024-03-23T02:55:29;7.50;99.90
8008;DHT22;4049;49.468;11.200;2024-03-23T02:57:58;7.50;99.90
8008;DHT22;4049;49.468;11.200;2024-03-23T03:00:27;7.60;99.90
8008;DHT22;4049;49.468;11.200;2024-03-23T03:02:54;7.60;99.90
8008;DHT22;4049;49.468;11.200;2024-03-23T03:05:20;7.60;99.90
8008;DHT22;4049;49.468;11.200;2024-03-23T03:07:47;7.60;99.90
8008;DHT22;4049;49.468;11.200;2024-03-23T03:10:13;7.70;99.90
8008;DHT22;4049;49.468;11.200;2024-03-23T03:12:39;7.70;99.90
8008;DHT22;4049;49.468;11.200;2024-03-23T03:15:07;7.70;99.90
8008;DHT22;4049;49.468;11.200;2024-03-23T03:17:34;7.70;99.90
8008;DHT22;4049;49.468;11.200;2024-03-23T03:20:00;7.70;99.90
8008;DHT22;4049;49.468;11.200;2024-03-23T03:22:30;7.70;99.90
8008;DHT22;4049;49.468;11.200;2024-03-23T03:24:56;7.70;99.90
8008;DHT22;4049;49.468;11.200;2024-03-23T03:27:22;7.80;99.90
8008;DHT22;4049;49.468;11.200;2024-03-23T03:29:48;7.80;99.90
8008;DHT22;4049;49.468;11.200;2024-03-23T03:32:16;7.80;99.90
8008;DHT22;4049;49.468;11.200;2024-03-23T03:34:42;7.80;99.90
8008;DHT22;4049;49.468;11.200;2024-03-23T03:37:09;7.90;99.90
8008;DHT22;4049;49.468;11.200;2024-03-23T03:39:35;8.00;99.90
8008;DHT22;4049;49.468;11.200;2024-03-23T03:42:02;8.00;99.90
8008;DHT22;4049;49.468;11.200;2024-03-23T03:44:32;8.00;99.90
8008;DHT22;4049;49.468;11.200;2024-03-23T03:46:59;8.10;99.90
8008;DHT22;4049;49.468;11.200;2024-03-23T03:49:26;8.10;99.90
8008;DHT22;4049;49.468;11.200;2024-03-23T03:51:55;8.20;99.90
8008;DHT22;4049;49.468;11.200;2024-03-23T03:54:21;8.30;99.90
8008;DHT22;4049;49.468;11.200;2024-03-23T03:56:48;8.30;99.90
8008;DHT22;4049;49.468;11.200;2024-03-23T03:59:14;8.40;99.90
8008;DHT22;4049;49.468;11.200;2024-03-23T04:01:41;8.50;99.90
8008;DHT22;4049;49.468;11.200;2024-03-23T04:04:07;8.40;99.90
8008;DHT22;4049;49.468;11.200;2024-03-23T04:06:35;8.40;99.90
8008;DHT22;4049;49.468;11.200;2024-03-23T04:09:01;8.40;99.90
8008;DHT22;4049;49.468;11.200;2024-03-23T04:11:28;8.50;99.90
8008;DHT22;4049;49.468;11.200;2024-03-23T04:13:54;8.60;99.90
8008;DHT22;4049;49.468;11.200;2024-03-23T04:16:27;8.60;99.90
8008;DHT22;4049;49.468;11.200;2024-03-23T04:18:53;8.70;99.90
8008;DHT22;4049;49.468;11.200;2024-03-23T04:21:21;8.80;99.90
8008;DHT22;4049;49.468;11.200;2024-03-23T04:23:48;8.90;99.90
8008;DHT22;4049;49.468;11.200;2024-03-23T04:26:15;9.00;99.90
8008;DHT22;4049;49.468;11.200;2024-03-23T04:28:41;9.10;99.90
8008;DHT22;4049;49.468;11.200;2024-03-23T04:31:08;9.10;99.90
8008;DHT22;4049;49.468;11.200;2024-03-23T04:33:34;9.20;99.90
8008;DHT22;4049;49.468;11.200;2024-03-23T04:36:01;9.20;99.90
8008;DHT22;4049;49.468;11.200;2024-03-23T04:38:28;9.30;99.90
8008;DHT22;4049;49.468;11.200;2024-03-23T04:40:59;9.30;99.90
8008;DHT22;4049;49.468;11.200;2024-03-23T04:43:27;9.40;99.90
8008;DHT22;4049;49.468;11.200;2024-03-23T04:45:57;9.40;99.90
8008;DHT22;4049;49.468;11.200;2024-03-23T04:48:24;9.50;99.90
8008;DHT22;4049;49.468;11.200;2024-03-23T04:50:55;9.50;99.90
8008;DHT22;4049;49.468;11.200;2024-03-23T04:53:23;9.50;99.90
8008;DHT22;4049;49.468;11.200;2024-03-23T04:55:53;9.50;99.90
8008;DHT22;4049;49.468;11.200;2024-03-23T04:58:22;9.50;99.90
8008;DHT22;4049;49.468;11.200;2024-03-23T05:00:47;9.50;99.90
8008;DHT22;4049;49.468;11.200;2024-03-23T05:03:15;9.50;99.90
8008;DHT22;4049;49.468;11.200;2024-03-23T05:05:41;9.50;99.90
8008;DHT22;4049;49.468;11.200;2024-03-23T05:08:08;9.50;99.90
8008;DHT22;4049;49.468;11.200;2024-03-23T05:10:34;9.50;99.90
8008;DHT22;4049;49.468;11.200;2024-03-23T05:13:01;9.50;99.90
8008;DHT22;4049;49.468;11.200;2024-03-23T05:15:28;9.40;99.90
8008;DHT22;4049;49.468;11.200;2024-03-23T05:17:56;9.50;99.90
8008;DHT22;4049;49.468;11.200;2024-03-23T05:20:22;9.40;99.90
8008;DHT22;4049;49.468;11.200;2024-03-23T05:22:49;9.40;99.90
8008;DHT22;4049;49.468;11.200;2024-03-23T05:25:15;9.40;99.90
8008;DHT22;4049;49.468;11.200;2024-03-23T05:27:42;9.50;99.90
8008;DHT22;4049;49.468;11.200;2024-03-23T05:30:08;9.50;99.90
8008;DHT22;4049;49.468;11.200;2024-03-23T05:32:37;9.50;99.90
8008;DHT22;4049;49.468;11.200;2024-03-23T05:35:06;9.50;99.90
8008;DHT22;4049;49.468;11.200;2024-03-23T05:37:33;9.50;99.90
8008;DHT22;4049;49.468;11.200;2024-03-23T05:39:59;9.50;99.90
8008;DHT22;4049;49.468;11.200;2024-03-23T05:42:26;9.60;99.90
8008;DHT22;4049;49.468;11.200;2024-03-23T05:44:53;9.70;99.90
8008;DHT22;4049;49.468;11.200;2024-03-23T05:47:19;9.70;99.90
8008;DHT22;4049;49.468;11.200;2024-03-23T05:49:47;9.70;99.90
8008;DHT22;4049;49.468;11.200;2024-03-23T05:52:14;9.80;99.90
8008;DHT22;4049;49.468;11.200;2024-03-23T05:54:40;9.80;99.90
8008;DHT22;4049;49.468;11.200;2024-03-23T05:57:09;9.90;99.90
8008;DHT22;4049;49.468;11.200;2024-03-23T05:59:37;9.90;99.90
8008;DHT22;4049;49.468;11.200;2024-03-23T06:02:03;10.00;99.90
8008;DHT22;4049;49.468;11.200;2024-03-23T06:04:30;10.10;99.90
8008;DHT22;4049;49.468;11.200;2024-03-23T06:06:57;10.10;99.90
8008;DHT22;4049;49.468;11.200;2024-03-23T06:09:24;10.10;99.90
8008;DHT22;4049;49.468;11.200;2024-03-23T06:11:50;10.10;99.90
8008;DHT22;4049;49.468;11.200;2024-03-23T06:14:17;10.20;99.90
8008;DHT22;4049;49.468;11.200;2024-03-23T06:16:43;10.30;99.90
8008;DHT22;4049;49.468;11.200;2024-03-23T06:19:10;10.30;99.90
8008;DHT22;4049;49.468;11.200;2024-03-23T06:21:36;10.30;99.90
8008;DHT22;4049;49.468;11.200;2024-03-23T06:24:05;10.30;99.90
8008;DHT22;4049;49.468;11.200;2024-03-23T06:26:31;10.30;99.90
8008;DHT22;4049;49.468;11.200;2024-03-23T06:28:57;10.40;99.90
8008;DHT22;4049;49.468;11.200;2024-03-23T06:31:24;10.40;99.90
8008;DHT22;4049;49.468;11.200;2024-03-23T06:33:50;10.40;99.90
8008;DHT22;4049;49.468;11.200;2024-03-23T06:36:17;10.30;99.90
8008;DHT22;4049;49.468;11.200;2024-03-23T06:38:45;10.30;99.90
8008;DHT22;4049;49.468;11.200;2024-03-23T06:41:13;10.30;99.90
8008;DHT22;4049;49.468;11.200;2024-03-23T06:43:39;10.30;99.90
8008;DHT22;4049;49.468;11.200;2024-03-23T06:46:06;10.30;99.90
8008;DHT22;4049;49.468;11.200;2024-03-23T06:48:32;10.30;99.90
8008;DHT22;4049;49.468;11.200;2024-03-23T06:50:59;10.30;99.90
8008;DHT22;4049;49.468;11.200;2024-03-23T06:53:25;10.30;99.90
8008;DHT22;4049;49.468;11.200;2024-03-23T06:55:53;10.40;99.90
8008;DHT22;4049;49.468;11.200;2024-03-23T06:58:21;10.30;99.90
8008;DHT22;4049;49.468;11.200;2024-03-23T07:00:48;10.30;99.90
8008;DHT22;4049;49.468;11.200;2024-03-23T07:03:14;10.30;99.90
8008;DHT22;4049;49.468;11.200;2024-03-23T07:05:41;10.40;99.90
8008;DHT22;4049;49.468;11.200;2024-03-23T07:08:08;10.40;99.90
8008;DHT22;4049;49.468;11.200;2024-03-23T07:10:35;10.40;99.90
8008;DHT22;4049;49.468;11.200;2024-03-23T07:13:02;10.50;99.90
8008;DHT22;4049;49.468;11.200;2024-03-23T07:15:30;10.50;99.90
8008;DHT22;4049;49.468;11.200;2024-03-23T07:17:56;10.50;99.90
8008;DHT22;4049;49.468;11.200;2024-03-23T07:20:23;10.50;99.90
8008;DHT22;4049;49.468;11.200;2024-03-23T07:22:56;10.50;99.90
8008;DHT22;4049;49.468;11.200;2024-03-23T07:25:23;10.50;99.90
8008;DHT22;4049;49.468;11.200;2024-03-23T07:27:50;10.50;99.90
8008;DHT22;4049;49.468;11.200;2024-03-23T07:30:17;10.40;99.90
8008;DHT22;4049;49.468;11.200;2024-03-23T07:32:45;10.40;99.90
8008;DHT22;4049;49.468;11.200;2024-03-23T07:35:13;10.40;99.90
8008;DHT22;4049;49.468;11.200;2024-03-23T07:37:39;10.40;99.90
8008;DHT22;4049;49.468;11.200;2024-03-23T07:40:07;10.40;99.90
8008;DHT22;4049;49.468;11.200;2024-03-23T07:42:33;10.30;99.90
8008;DHT22;4049;49.468;11.200;2024-03-23T07:45:00;10.30;99.90
8008;DHT22;4049;49.468;11.200;2024-03-23T07:47:26;10.30;99.90
8008;DHT22;4049;49.468;11.200;2024-03-23T07:49:55;10.30;99.90
8008;DHT22;4049;49.468;11.200;2024-03-23T07:52:21;10.30;99.90
8008;DHT22;4049;49.468;11.200;2024-03-23T07:54:53;10.30;99.90
8008;DHT22;4049;49.468;11.200;2024-03-23T07:57:19;10.20;99.90
8008;DHT22;4049;49.468;11.200;2024-03-23T07:59:46;10.20;99.90
8008;DHT22;4049;49.468;11.200;2024-03-23T08:02:12;10.30;99.90
8008;DHT22;4049;49.468;11.200;2024-03-23T08:04:39;10.30;99.90
8008;DHT22;4049;49.468;11.200;2024-03-23T08:07:06;10.30;99.90
8008;DHT22;4049;49.468;11.200;2024-03-23T08:09:33;10.30;99.90
8008;DHT22;4049;49.468;11.200;2024-03-23T08:11:59;10.40;99.90
8008;DHT22;4049;49.468;11.200;2024-03-23T08:14:26;10.40;99.90
8008;DHT22;4049;49.468;11.200;2024-03-23T08:16:54;10.40;99.90
8008;DHT22;4049;49.468;11.200;2024-03-23T08:19:21;10.50;99.90
8008;DHT22;4049;49.468;11.200;2024-03-23T08:21:47;10.60;99.90
8008;DHT22;4049;49.468;11.200;2024-03-23T08:24:16;10.60;99.90
8008;DHT22;4049;49.468;11.200;2024-03-23T08:26:46;10.60;99.90
8008;DHT22;4049;49.468;11.200;2024-03-23T08:29:13;10.50;99.90
8008;DHT22;4049;49.468;11.200;2024-03-23T08:31:39;10.40;99.90
8008;DHT22;4049;49.468;11.200;2024-03-23T08:34:06;10.30;99.90
8008;DHT22;4049;49.468;11.200;2024-03-23T08:36:32;10.20;99.90
8008;DHT22;4049;49.468;11.200;2024-03-23T08:38:59;10.00;99.90
8008;DHT22;4049;49.468;11.200;2024-03-23T08:41:26;9.80;99.90
8008;DHT22;4049;49.468;11.200;2024-03-23T08:43:53;9.70;99.90
8008;DHT22;4049;49.468;11.200;2024-03-23T08:46:18;9.50;99.90
8008;DHT22;4049;49.468;11.200;2024-03-23T08:48:46;9.50;99.90
8008;DHT22;4049;49.468;11.200;2024-03-23T08:51:15;9.40;99.90
8008;DHT22;4049;49.468;11.200;2024-03-23T08:53:43;9.40;99.90
8008;DHT22;4049;49.468;11.200;2024-03-23T08:56:10;9.40;99.90
8008;DHT22;4049;49.468;11.200;2024-03-23T08:58:38;9.40;99.90
8008;DHT22;4049;49.468;11.200;2024-03-23T09:01:07;9.40;99.90
8008;DHT22;4049;49.468;11.200;2024-03-23T09:03:34;9.40;99.90
8008;DHT22;4049;49.468;11.200;2024-03-23T09:06:01;9.40;99.90
8008;DHT22;4049;49.468;11.200;2024-03-23T09:08:28;9.40;99.90
8008;DHT22;4049;49.468;11.200;2024-03-23T09:10:54;9.40;99.90
8008;DHT22;4049;49.468;11.200;2024-03-23T09:13:21;9.40;99.90
8008;DHT22;4049;49.468;11.200;2024-03-23T09:15:49;9.40;99.90
8008;DHT22;4049;49.468;11.200;2024-03-23T09:18:16;9.30;99.90
8008;DHT22;4049;49.468;11.200;2024-03-23T09:20:43;9.10;99.90
8008;DHT22;4049;49.468;11.200;2024-03-23T09:23:10;9.10;99.90
8008;DHT22;4049;49.468;11.200;2024-03-23T09:25:39;9.20;99.90
8008;DHT22;4049;49.468;11.200;2024-03-23T09:28:07;9.20;99.90
8008;DHT22;4049;49.468;11.200;2024-03-23T09:30:34;9.30;99.90
8008;DHT22;4049;49.468;11.200;2024-03-23T09:33:03;9.30;99.90
8008;DHT22;4049;49.468;11.200;2024-03-23T09:35:29;9.20;99.90
8008;DHT22;4049;49.468;11.200;2024-03-23T09:37:56;9.10;99.90
8008;DHT22;4049;49.468;11.200;2024-03-23T09:40:22;9.20;99.90
8008;DHT22;4049;49.468;11.200;2024-03-23T09:42:50;9.20;99.90
8008;DHT22;4049;49.468;11.200;2024-03-23T09:45:18;9.20;99.90
8008;DHT22;4049;49.468;11.200;2024-03-23T09:47:46;9.10;99.90
8008;DHT22;4049;49.468;11.200;2024-03-23T09:50:14;9.10;99.90
8008;DHT22;4049;49.468;11.200;2024-03-23T09:52:41;9.20;99.90
8008;DHT22;4049;49.468;11.200;2024-03-23T09:55:08;9.40;99.90
8008;DHT22;4049;49.468;11.200;2024-03-23T09:57:35;9.40;99.90
8008;DHT22;4049;49.468;11.200;2024-03-23T10:00:01;9.50;99.90
8008;DHT22;4049;49.468;11.200;2024-03-23T10:02:29;9.50;99.90
8008;DHT22;4049;49.468;11.200;2024-03-23T10:04:54;9.60;99.90
8008;DHT22;4049;49.468;11.200;2024-03-23T10:07:25;9.60;99.90
8008;DHT22;4049;49.468;11.200;2024-03-23T10:09:51;9.60;99.90
8008;DHT22;4049;49.468;11.200;2024-03-23T10:12:19;9.50;99.90
8008;DHT22;4049;49.468;11.200;2024-03-23T10:14:45;9.50;99.90
8008;DHT22;4049;49.468;11.200;2024-03-23T10:17:14;9.50;99.90
8008;DHT22;4049;49.468;11.200;2024-03-23T10:19:40;9.50;99.90
8008;DHT22;4049;49.468;11.200;2024-03-23T10:22:09;9.40;99.90
8008;DHT22;4049;49.468;11.200;2024-03-23T10:24:36;9.30;99.90
8008;DHT22;4049;49.468;11.200;2024-03-23T10:27:03;9.20;99.90
8008;DHT22;4049;49.468;11.200;2024-03-23T10:29:29;9.10;99.90
8008;DHT22;4049;49.468;11.200;2024-03-23T10:32:07;9.10;99.90
8008;DHT22;4049;49.468;11.200;2024-03-23T10:34:34;9.10;99.90
8008;DHT22;4049;49.468;11.200;2024-03-23T10:37:02;9.00;99.90
8008;DHT22;4049;49.468;11.200;2024-03-23T10:39:30;9.00;99.90
8008;DHT22;4049;49.468;11.200;2024-03-23T10:42:00;9.00;99.90
8008;DHT22;4049;49.468;11.200;2024-03-23T10:44:28;9.00;99.90
8008;DHT22;4049;49.468;11.200;2024-03-23T10:46:57;9.00;99.90
8008;DHT22;4049;49.468;11.200;2024-03-23T10:49:26;9.10;99.90
8008;DHT22;4049;49.468;11.200;2024-03-23T10:51:56;9.10;99.90
8008;DHT22;4049;49.468;11.200;2024-03-23T10:54:24;9.20;99.90
8008;DHT22;4049;49.468;11.200;2024-03-23T10:56:57;9.30;99.90
8008;DHT22;4049;49.468;11.200;2024-03-23T10:59:27;9.40;99.90
8008;DHT22;4049;49.468;11.200;2024-03-23T11:01:55;9.40;99.90
8008;DHT22;4049;49.468;11.200;2024-03-23T11:04:39;9.50;99.90
8008;DHT22;4049;49.468;11.200;2024-03-23T11:07:29;9.50;99.90
8008;DHT22;4049;49.468;11.200;2024-03-23T11:09:56;9.60;99.90
8008;DHT22;4049;49.468;11.200;2024-03-23T11:12:30;9.60;99.90
8008;DHT22;4049;49.468;11.200;2024-03-23T11:15:01;9.60;99.90
8008;DHT22;4049;49.468;11.200;2024-03-23T11:17:28;9.50;99.90
8008;DHT22;4049;49.468;11.200;2024-03-23T11:19:56;9.50;99.90
8008;DHT22;4049;49.468;11.200;2024-03-23T11:22:39;9.40;99.90
8008;DHT22;4049;49.468;11.200;2024-03-23T11:25:15;9.50;99.90
8008;DHT22;4049;49.468;11.200;2024-03-23T11:27:44;9.70;99.90
8008;DHT22;4049;49.468;11.200;2024-03-23T11:30:14;9.80;99.90
8008;DHT22;4049;49.468;11.200;2024-03-23T11:32:42;9.80;99.90
8008;DHT22;4049;49.468;11.200;2024-03-23T11:35:08;10.00;99.90
8008;DHT22;4049;49.468;11.200;2024-03-23T11:37:36;10.20;99.90
8008;DHT22;4049;49.468;11.200;2024-03-23T11:40:17;10.40;99.90
8008;DHT22;4049;49.468;11.200;2024-03-23T11:42:44;10.40;99.90
8008;DHT22;4049;49.468;11.200;2024-03-23T11:45:11;10.50;99.90
8008;DHT22;4049;49.468;11.200;2024-03-23T11:47:39;10.50;99.90
8008;DHT22;4049;49.468;11.200;2024-03-23T11:50:05;10.40;99.90
8008;DHT22;4049;49.468;11.200;2024-03-23T11:52:32;10.30;99.90
8008;DHT22;4049;49.468;11.200;2024-03-23T11:55:03;10.20;99.90
8008;DHT22;4049;49.468;11.200;2024-03-23T11:57:30;10.10;99.90
8008;DHT22;4049;49.468;11.200;2024-03-23T11:59:56;10.10;99.90
8008;DHT22;4049;49.468;11.200;2024-03-23T12:02:23;10.20;99.90
8008;DHT22;4049;49.468;11.200;2024-03-23T12:04:51;10.40;99.90
8008;DHT22;4049;49.468;11.200;2024-03-23T12:07:19;10.40;99.90
8008;DHT22;4049;49.468;11.200;2024-03-23T12:09:46;10.50;99.90
8008;DHT22;4049;49.468;11.200;2024-03-23T12:12:15;10.50;99.90
8008;DHT22;4049;49.468;11.200;2024-03-23T12:14:41;10.70;99.90
8008;DHT22;4049;49.468;11.200;2024-03-23T12:17:10;10.90;99.90
8008;DHT22;4049;49.468;11.200;2024-03-23T12:19:36;11.00;99.90
8008;DHT22;4049;49.468;11.200;2024-03-23T12:22:04;11.20;99.90
8008;DHT22;4049;49.468;11.200;2024-03-23T12:24:31;11.30;99.90
8008;DHT22;4049;49.468;11.200;2024-03-23T12:27:00;11.40;99.90
8008;DHT22;4049;49.468;11.200;2024-03-23T12:29:28;11.60;99.90
8008;DHT22;4049;49.468;11.200;2024-03-23T12:31:55;11.70;99.90
8008;DHT22;4049;49.468;11.200;2024-03-23T12:34:21;11.70;99.90
8008;DHT22;4049;49.468;11.200;2024-03-23T12:36:48;11.70;93.30
8008;DHT22;4049;49.468;11.200;2024-03-23T12:39:16;11.50;91.50
8008;DHT22;4049;49.468;11.200;2024-03-23T12:41:43;11.30;93.10
8008;DHT22;4049;49.468;11.200;2024-03-23T12:44:09;11.30;94.10
8008;DHT22;4049;49.468;11.200;2024-03-23T12:46:37;11.30;93.70
8008;DHT22;4049;49.468;11.200;2024-03-23T12:49:03;11.30;95.20
8008;DHT22;4049;49.468;11.200;2024-03-23T12:51:30;11.20;91.10
8008;DHT22;4049;49.468;11.200;2024-03-23T12:53:56;11.20;92.80
8008;DHT22;4049;49.468;11.200;2024-03-23T12:56:25;11.10;93.10
8008;DHT22;4049;49.468;11.200;2024-03-23T12:58:50;11.00;93.30
8008;DHT22;4049;49.468;11.200;2024-03-23T13:01:19;11.00;96.00
8008;DHT22;4049;49.468;11.200;2024-03-23T13:03:46;11.00;95.60
8008;DHT22;4049;49.468;11.200;2024-03-23T13:06:13;11.00;95.70
8008;DHT22;4049;49.468;11.200;2024-03-23T13:08:39;10.90;94.10
8008;DHT22;4049;49.468;11.200;2024-03-23T13:11:07;10.90;95.30
8008;DHT22;4049;49.468;11.200;2024-03-23T13:13:35;10.90;95.30
8008;DHT22;4049;49.468;11.200;2024-03-23T13:16:03;10.80;93.10
8008;DHT22;4049;49.468;11.200;2024-03-23T13:18:29;10.70;94.80
8008;DHT22;4049;49.468;11.200;2024-03-23T13:20:56;10.60;94.50
8008;DHT22;4049;49.468;11.200;2024-03-23T13:23:22;10.50;95.80
8008;DHT22;4049;49.468;11.200;2024-03-23T13:25:52;10.50;94.90
8008;DHT22;4049;49.468;11.200;2024-03-23T13:28:18;10.40;92.60
8008;DHT22;4049;49.468;11.200;2024-03-23T13:30:53;10.30;94.20
8008;DHT22;4049;49.468;11.200;2024-03-23T13:33:20;10.40;94.50
8008;DHT22;4049;49.468;11.200;2024-03-23T13:35:50;10.40;95.10
8008;DHT22;4049;49.468;11.200;2024-03-23T13:38:16;10.50;94.20
8008;DHT22;4049;49.468;11.200;2024-03-23T13:40:52;10.60;94.10
8008;DHT22;4049;49.468;11.200;2024-03-23T13:43:18;10.70;80.80
8008;DHT22;4049;49.468;11.200;2024-03-23T13:45:46;10.60;90.00
8008;DHT22;4049;49.468;11.200;2024-03-23T13:48:13;10.80;85.00
8008;DHT22;4049;49.468;11.200;2024-03-23T13:50:41;11.00;86.20
8008;DHT22;4049;49.468;11.200;2024-03-23T13:53:07;11.10;87.90
8008;DHT22;4049;49.468;11.200;2024-03-23T13:55:34;11.20;76.00
8008;DHT22;4049;49.468;11.200;2024-03-23T13:58:00;11.10;79.80
8008;DHT22;4049;49.468;11.200;2024-03-23T14:00:27;11.10;80.00
8008;DHT22;4049;49.468;11.200;2024-03-23T14:02:53;11.00;83.00
8008;DHT22;4049;49.468;11.200;2024-03-23T14:05:21;11.00;76.50
8008;DHT22;4049;49.468;11.200;2024-03-23T14:07:47;11.10;82.30
8008;DHT22;4049;49.468;11.200;2024-03-23T14:10:14;11.10;77.10
8008;DHT22;4049;49.468;11.200;2024-03-23T14:12:40;11.20;78.60
8008;DHT22;4049;49.468;11.200;2024-03-23T14:15:08;11.30;70.10
8008;DHT22;4049;49.468;11.200;2024-03-23T14:17:34;11.50;73.20
8008;DHT22;4049;49.468;11.200;2024-03-23T14:20:01;11.70;73.80
8008;DHT22;4049;49.468;11.200;2024-03-23T14:22:32;12.00;71.60
8008;DHT22;4049;49.468;11.200;2024-03-23T14:24:59;12.10;67.50
8008;DHT22;4049;49.468;11.200;2024-03-23T14:27:25;12.20;66.40
8008;DHT22;4049;49.468;11.200;2024-03-23T14:29:52;12.30;70.00
8008;DHT22;4049;49.468;11.200;2024-03-23T14:32:17;12.40;67.70
8008;DHT22;4049;49.468;11.200;2024-03-23T14:34:44;12.30;63.30
8008;DHT22;4049;49.468;11.200;2024-03-23T14:37:10;12.20;62.70
8008;DHT22;4049;49.468;11.200;2024-03-23T14:39:38;12.00;60.10
8008;DHT22;4049;49.468;11.200;2024-03-23T14:42:07;11.80;59.20
8008;DHT22;4049;49.468;11.200;2024-03-23T14:44:35;11.70;65.40
8008;DHT22;4049;49.468;11.200;2024-03-23T14:47:01;11.60;65.00
8008;DHT22;4049;49.468;11.200;2024-03-23T14:49:27;11.70;67.80
8008;DHT22;4049;49.468;11.200;2024-03-23T14:51:54;11.80;66.70
8008;DHT22;4049;49.468;11.200;2024-03-23T14:54:20;11.80;67.40
8008;DHT22;4049;49.468;11.200;2024-03-23T14:56:48;11.90;67.70
8008;DHT22;4049;49.468;11.200;2024-03-23T14:59:14;11.90;71.10
8008;DHT22;4049;49.468;11.200;2024-03-23T15:01:41;11.90;69.30
8008;DHT22;4049;49.468;11.200;2024-03-23T15:04:07;11.70;72.40
8008;DHT22;4049;49.468;11.200;2024-03-23T15:06:34;11.60;72.70
8008;DHT22;4049;49.468;11.200;2024-03-23T15:09:00;11.50;75.20
8008;DHT22;4049;49.468;11.200;2024-03-23T15:11:26;11.30;78.10
8008;DHT22;4049;49.468;11.200;2024-03-23T15:13:54;11.20;77.10
8008;DHT22;4049;49.468;11.200;2024-03-23T15:16:20;11.00;82.10
8008;DHT22;4049;49.468;11.200;2024-03-23T15:18:46;10.80;83.30
8008;DHT22;4049;49.468;11.200;2024-03-23T15:21:14;10.70;84.40
8008;DHT22;4049;49.468;11.200;2024-03-23T15:23:45;10.50;87.20
8008;DHT22;4049;49.468;11.200;2024-03-23T15:26:13;10.20;95.10
8008;DHT22;4049;49.468;11.200;2024-03-23T15:28:39;9.80;99.90
8008;DHT22;4049;49.468;11.200;2024-03-23T15:31:11;9.40;99.90
8008;DHT22;4049;49.468;11.200;2024-03-23T15:33:37;9.10;99.90
8008;DHT22;4049;49.468;11.200;2024-03-23T15:36:05;8.80;99.90
8008;DHT22;4049;49.468;11.200;2024-03-23T15:38:32;8.60;99.90
8008;DHT22;4049;49.468;11.200;2024-03-23T15:40:59;8.60;99.90
8008;DHT22;4049;49.468;11.200;2024-03-23T15:43:26;8.60;99.90
8008;DHT22;4049;49.468;11.200;2024-03-23T15:45:56;8.60;99.90
8008;DHT22;4049;49.468;11.200;2024-03-23T15:48:24;8.70;99.90
8008;DHT22;4049;49.468;11.200;2024-03-23T15:50:52;8.70;99.90
8008;DHT22;4049;49.468;11.200;2024-03-23T15:53:19;8.70;99.90
8008;DHT22;4049;49.468;11.200;2024-03-23T15:55:45;8.70;99.90
8008;DHT22;4049;49.468;11.200;2024-03-23T15:58:12;8.70;99.90
8008;DHT22;4049;49.468;11.200;2024-03-23T16:00:38;8.70;99.90
8008;DHT22;4049;49.468;11.200;2024-03-23T16:03:05;8.70;99.90
8008;DHT22;4049;49.468;11.200;2024-03-23T16:05:32;8.70;99.90
8008;DHT22;4049;49.468;11.200;2024-03-23T16:07:59;8.70;99.90
8008;DHT22;4049;49.468;11.200;2024-03-23T16:10:24;8.70;99.90
8008;DHT22;4049;49.468;11.200;2024-03-23T16:12:51;8.60;99.90
8008;DHT22;4049;49.468;11.200;2024-03-23T16:15:17;8.60;99.90
8008;DHT22;4049;49.468;11.200;2024-03-23T16:17:44;8.50;99.90
8008;DHT22;4049;49.468;11.200;2024-03-23T16:20:11;8.40;99.90
8008;DHT22;4049;49.468;11.200;2024-03-23T16:22:39;8.40;99.90
8008;DHT22;4049;49.468;11.200;2024-03-23T16:25:06;8.40;99.90
8008;DHT22;4049;49.468;11.200;2024-03-23T16:27:34;8.30;99.90
8008;DHT22;4049;49.468;11.200;2024-03-23T16:30:00;8.20;99.90
8008;DHT22;4049;49.468;11.200;2024-03-23T16:32:27;8.20;99.90
8008;DHT22;4049;49.468;11.200;2024-03-23T16:34:55;8.10;99.90
8008;DHT22;4049;49.468;11.200;2024-03-23T16:37:22;8.00;99.90
8008;DHT22;4049;49.468;11.200;2024-03-23T16:39:49;8.00;99.90
8008;DHT22;4049;49.468;11.200;2024-03-23T16:42:16;7.90;99.90
8008;DHT22;4049;49.468;11.200;2024-03-23T16:44:42;7.90;99.90
8008;DHT22;4049;49.468;11.200;2024-03-23T16:47:08;7.80;99.90
8008;DHT22;4049;49.468;11.200;2024-03-23T16:49:35;7.70;99.90
8008;DHT22;4049;49.468;11.200;2024-03-23T16:52:04;7.60;99.90